createdAt,value
2022-09-10T00:01:14.806Z,15.90
2022-09-10T00:03:43.745Z,15.90
2022-09-10T00:06:12.102Z,15.90
2022-09-10T00:08:39.697Z,15.90
2022-09-10T00:11:11.107Z,15.90
2022-09-10T00:13:40.660Z,15.90
2022-09-10T00:16:11.090Z,15.90
2022-09-10T00:18:39.709Z,16.00
2022-09-10T00:21:10.337Z,16.00
2022-09-10T00:23:37.920Z,16.00
2022-09-10T00:26:38.236Z,16.00
2022-09-10T00:29:07.397Z,16.10
2022-09-10T00:31:35.778Z,16.10
2022-09-10T00:34:04.319Z,16.10
2022-09-10T00:36:35.904Z,16.10
2022-09-10T00:39:06.487Z,16.10
2022-09-10T00:41:35.003Z,16.10
2022-09-10T00:44:05.150Z,16.10
2022-09-10T00:46:46.867Z,16.10
2022-09-10T00:49:25.995Z,16.10
2022-09-10T00:51:53.759Z,16.10
2022-09-10T00:54:25.043Z,16.10
2022-09-10T00:56:55.553Z,16.20
2022-09-10T00:59:25.667Z,16.20
2022-09-10T01:01:53.254Z,16.20
2022-09-10T01:04:20.339Z,16.20
2022-09-10T01:06:51.962Z,16.20
2022-09-10T01:09:21.420Z,16.20
2022-09-10T01:12:04.469Z,16.20
2022-09-10T01:14:47.114Z,16.30
2022-09-10T01:17:34.077Z,16.30
2022-09-10T01:20:23.225Z,16.30
2022-09-10T01:23:05.040Z,16.30
2022-09-10T01:25:53.984Z,16.30
2022-09-10T01:28:43.928Z,16.30
2022-09-10T01:31:20.181Z,16.30
2022-09-10T01:33:59.514Z,16.30
2022-09-10T01:36:31.204Z,16.30
2022-09-10T01:38:58.243Z,16.30
2022-09-10T01:41:28.378Z,16.30
2022-09-10T01:43:56.048Z,16.30
2022-09-10T01:46:25.162Z,16.30
2022-09-10T01:49:36.845Z,16.30
2022-09-10T01:52:19.202Z,16.30
2022-09-10T01:55:07.215Z,16.30
2022-09-10T01:58:00.188Z,16.40
2022-09-10T02:00:40.250Z,16.30
2022-09-10T02:03:16.265Z,16.30
2022-09-10T02:05:47.468Z,16.30
2022-09-10T02:08:23.744Z,16.30
2022-09-10T02:11:00.101Z,16.30
2022-09-10T02:13:31.384Z,16.30
2022-09-10T02:16:37.784Z,16.30
2022-09-10T02:19:05.962Z,16.30
2022-09-10T02:21:34.064Z,16.30
2022-09-10T02:24:10.069Z,16.30
2022-09-10T02:26:39.880Z,16.30
2022-09-10T02:29:08.392Z,16.20
2022-09-10T02:31:37.954Z,16.30
2022-09-10T02:34:05.097Z,16.30
2022-09-10T02:36:32.720Z,16.30
2022-09-10T02:39:02.657Z,16.30
2022-09-10T02:41:34.204Z,16.30
2022-09-10T02:44:03.414Z,16.30
2022-09-10T02:46:31.011Z,16.30
2022-09-10T02:48:58.499Z,16.40
2022-09-10T02:51:26.219Z,16.40
2022-09-10T02:53:53.354Z,16.40
2022-09-10T02:56:20.511Z,16.40
2022-09-10T02:58:48.530Z,16.40
2022-09-10T03:01:21.082Z,16.40
2022-09-10T03:04:00.303Z,16.40
2022-09-10T03:06:28.220Z,16.40
2022-09-10T03:08:55.509Z,16.40
2022-09-10T03:11:27.386Z,16.40
2022-09-10T03:13:55.505Z,16.40
2022-09-10T03:16:24.401Z,16.40
2022-09-10T03:18:52.360Z,16.40
2022-09-10T03:21:22.033Z,16.40
2022-09-10T03:23:50.950Z,16.40
2022-09-10T03:26:25.549Z,16.40
2022-09-10T03:28:53.965Z,16.40
2022-09-10T03:31:23.190Z,16.40
2022-09-10T03:33:51.202Z,16.40
2022-09-10T03:36:21.267Z,16.40
2022-09-10T03:38:49.565Z,16.40
2022-09-10T03:41:16.600Z,16.40
2022-09-10T03:43:43.821Z,16.40
2022-09-10T03:46:12.304Z,16.40
2022-09-10T03:48:43.723Z,16.40
2022-09-10T03:51:11.522Z,16.40
2022-09-10T03:53:39.438Z,16.40
2022-09-10T03:56:08.503Z,16.40
2022-09-10T03:58:35.832Z,16.40
2022-09-10T04:01:07.178Z,16.40
2022-09-10T04:03:37.893Z,16.40
2022-09-10T04:06:04.998Z,16.40
2022-09-10T04:08:31.925Z,16.40
2022-09-10T04:11:03.017Z,16.40
2022-09-10T04:13:31.725Z,16.40
2022-09-10T04:16:02.640Z,16.40
2022-09-10T04:18:33.662Z,16.40
2022-09-10T04:21:01.055Z,16.40
2022-09-10T04:23:29.458Z,16.40
2022-09-10T04:25:57.150Z,16.40
2022-09-10T04:28:24.936Z,16.50
2022-09-10T04:30:52.744Z,16.50
2022-09-10T04:33:22.450Z,16.50
2022-09-10T04:35:49.506Z,16.50
2022-09-10T04:38:16.710Z,16.50
2022-09-10T04:40:47.694Z,16.50
2022-09-10T04:43:15.885Z,16.50
2022-09-10T04:45:43.963Z,16.50
2022-09-10T04:48:11.919Z,16.50
2022-09-10T04:50:59.295Z,16.50
2022-09-10T04:53:31.427Z,16.50
2022-09-10T04:55:58.884Z,16.50
2022-09-10T04:58:26.238Z,16.50
2022-09-10T05:00:53.712Z,16.50
2022-09-10T05:03:20.653Z,16.60
2022-09-10T05:05:49.105Z,16.60
2022-09-10T05:08:16.033Z,16.60
2022-09-10T05:10:50.501Z,16.60
2022-09-10T05:13:17.706Z,16.60
2022-09-10T05:15:46.060Z,16.60
2022-09-10T05:18:14.383Z,16.70
2022-09-10T05:20:43.727Z,16.70
2022-09-10T05:23:11.343Z,16.70
2022-09-10T05:25:39.277Z,16.70
2022-09-10T05:28:07.045Z,16.70
2022-09-10T05:30:34.471Z,16.70
2022-09-10T05:33:02.581Z,16.70
2022-09-10T05:35:33.297Z,16.70
2022-09-10T05:38:03.407Z,16.70
2022-09-10T05:40:35.941Z,16.70
2022-09-10T05:43:03.410Z,16.70
2022-09-10T05:45:30.878Z,16.80
2022-09-10T05:47:58.200Z,16.80
2022-09-10T05:50:25.431Z,16.80
2022-09-10T05:52:53.638Z,16.80
2022-09-10T05:55:20.880Z,16.80
2022-09-10T05:57:49.161Z,16.90
2022-09-10T06:00:18.964Z,16.90
2022-09-10T06:02:54.453Z,16.90
2022-09-10T06:05:29.156Z,16.80
2022-09-10T06:07:57.040Z,16.80
2022-09-10T06:10:24.164Z,16.70
2022-09-10T06:12:52.217Z,16.70
2022-09-10T06:15:21.244Z,16.70
2022-09-10T06:17:50.024Z,16.70
2022-09-10T06:20:17.882Z,16.70
2022-09-10T06:22:46.608Z,16.60
2022-09-10T06:25:13.476Z,16.60
2022-09-10T06:27:41.751Z,16.60
2022-09-10T06:30:09.111Z,16.60
2022-09-10T06:32:39.942Z,16.50
2022-09-10T06:35:09.474Z,16.50
2022-09-10T06:37:37.256Z,16.40
2022-09-10T06:40:07.446Z,16.40
2022-09-10T06:42:35.124Z,16.40
2022-09-10T06:45:21.840Z,16.40
2022-09-10T06:51:04.892Z,16.30
2022-09-10T06:53:36.725Z,16.30
2022-09-10T06:56:06.267Z,16.30
2022-09-10T06:58:39.229Z,16.20
2022-09-10T07:01:15.667Z,16.20
2022-09-10T07:03:49.781Z,16.10
2022-09-10T07:06:17.768Z,16.10
2022-09-10T07:08:47.764Z,16.10
2022-09-10T07:11:15.947Z,16.10
2022-09-10T07:13:44.277Z,16.10
2022-09-10T07:16:11.746Z,16.10
2022-09-10T07:18:39.156Z,16.10
2022-09-10T07:21:11.548Z,16.20
2022-09-10T07:23:44.145Z,16.20
2022-09-10T07:26:15.571Z,16.20
2022-09-10T07:28:47.210Z,16.20
2022-09-10T07:31:21.025Z,16.30
2022-09-10T07:33:49.944Z,16.30
2022-09-10T07:36:18.005Z,16.30
2022-09-10T07:38:46.864Z,16.30
2022-09-10T07:41:15.349Z,16.30
2022-09-10T07:43:44.125Z,16.30
2022-09-10T07:46:17.949Z,16.40
2022-09-10T07:48:45.201Z,16.40
2022-09-10T07:51:12.184Z,16.40
2022-09-10T07:53:47.558Z,16.40
2022-09-10T07:56:18.085Z,16.40
2022-09-10T07:58:45.103Z,16.40
2022-09-10T08:01:13.522Z,16.40
2022-09-10T08:03:41.043Z,16.40
2022-09-10T08:06:10.330Z,16.50
2022-09-10T08:08:40.331Z,16.50
2022-09-10T08:11:13.652Z,16.50
2022-09-10T08:13:49.893Z,16.60
2022-09-10T08:16:24.128Z,16.60
2022-09-10T08:18:58.165Z,16.60
2022-09-10T08:21:27.059Z,16.70
2022-09-10T08:23:54.927Z,16.70
2022-09-10T08:26:24.314Z,16.80
2022-09-10T08:28:54.125Z,16.80
2022-09-10T08:31:22.173Z,16.90
2022-09-10T08:33:56.867Z,16.90
2022-09-10T08:36:26.180Z,16.90
2022-09-10T08:38:59.816Z,17.00
2022-09-10T08:41:39.116Z,17.10
2022-09-10T08:44:35.760Z,17.10
2022-09-10T08:47:37.923Z,17.10
2022-09-10T08:50:30.650Z,17.20
2022-09-10T08:53:36.232Z,17.20
2022-09-10T08:56:08.547Z,17.20
2022-09-10T08:58:47.126Z,17.30
2022-09-10T09:01:30.484Z,17.40
2022-09-10T09:04:01.689Z,17.50
2022-09-10T09:06:46.594Z,17.50
2022-09-10T09:09:15.953Z,17.60
2022-09-10T09:12:02.773Z,17.80
2022-09-10T09:14:54.722Z,18.00
2022-09-10T09:17:56.323Z,18.00
2022-09-10T09:20:33.958Z,18.10
2022-09-10T09:23:22.334Z,18.00
2022-09-10T09:26:04.213Z,18.10
2022-09-10T09:28:48.771Z,18.10
2022-09-10T09:31:25.035Z,18.00
2022-09-10T09:34:00.408Z,17.90
2022-09-10T09:36:34.360Z,17.80
2022-09-10T09:39:06.119Z,17.70
2022-09-10T09:42:23.099Z,17.60
2022-09-10T09:45:18.401Z,17.50
2022-09-10T09:47:50.147Z,17.30
2022-09-10T09:50:20.674Z,17.20
2022-09-10T09:52:47.759Z,17.10
2022-09-10T09:55:35.056Z,17.10
2022-09-10T09:58:20.952Z,17.10
2022-09-10T10:01:05.940Z,17.10
2022-09-10T10:03:52.943Z,17.10
2022-09-10T10:06:45.941Z,17.10
2022-09-10T10:09:23.491Z,17.10
2022-09-10T10:12:04.783Z,17.00
2022-09-10T10:14:59.090Z,17.00
2022-09-10T10:17:33.939Z,17.00
2022-09-10T10:20:14.609Z,16.90
2022-09-10T10:22:43.910Z,17.00
2022-09-10T10:25:34.353Z,17.00
2022-09-10T10:28:01.557Z,17.10
2022-09-10T10:30:34.003Z,17.20
2022-09-10T10:33:03.055Z,17.30
2022-09-10T10:35:51.578Z,17.40
2022-09-10T10:38:31.856Z,17.60
2022-09-10T10:41:23.399Z,17.70
2022-09-10T10:44:14.895Z,17.90
2022-09-10T10:47:15.785Z,18.00
2022-09-10T10:49:45.590Z,18.10
2022-09-10T10:52:51.249Z,18.30
2022-09-10T10:55:35.870Z,18.50
2022-09-10T10:58:16.652Z,18.80
2022-09-10T11:00:49.960Z,18.60
2022-09-10T11:03:27.326Z,18.60
2022-09-10T11:06:00.879Z,18.60
2022-09-10T11:08:33.360Z,18.70
2022-09-10T11:11:24.542Z,18.90
2022-09-10T11:13:56.636Z,19.10
2022-09-10T11:16:29.509Z,19.20
2022-09-10T11:19:03.805Z,19.10
2022-09-10T11:21:39.236Z,18.90
2022-09-10T11:24:39.892Z,18.80
2022-09-10T11:27:10.257Z,18.80
2022-09-10T11:29:49.920Z,18.70
2022-09-10T11:32:39.375Z,18.70
2022-09-10T11:35:29.467Z,18.70
2022-09-10T11:38:01.043Z,18.70
2022-09-10T11:40:41.859Z,18.80
2022-09-10T11:43:18.038Z,19.00
2022-09-10T11:45:52.637Z,19.10
2022-09-10T11:48:44.850Z,19.20
2022-09-10T11:51:26.267Z,19.20
2022-09-10T11:53:54.917Z,19.30
2022-09-10T11:56:34.310Z,19.40
2022-09-10T11:59:26.997Z,19.60
2022-09-10T12:02:20.936Z,19.80
2022-09-10T12:05:19.286Z,20.00
2022-09-10T12:08:11.084Z,20.00
2022-09-10T12:10:56.365Z,19.80
2022-09-10T12:13:23.324Z,19.80
2022-09-10T12:15:58.019Z,19.90
2022-09-10T12:18:43.058Z,19.90
2022-09-10T12:21:24.967Z,19.90
2022-09-10T12:23:52.877Z,19.90
2022-09-10T12:26:21.092Z,19.90
2022-09-10T12:28:59.734Z,19.90
2022-09-10T12:31:27.796Z,19.90
2022-09-10T12:33:54.843Z,20.00
2022-09-10T12:36:27.813Z,20.00
2022-09-10T12:39:16.443Z,20.10
2022-09-10T12:41:43.431Z,20.10
2022-09-10T12:44:25.661Z,20.00
2022-09-10T12:47:17.539Z,19.90
2022-09-10T12:49:57.943Z,19.70
2022-09-10T12:52:42.915Z,19.70
2022-09-10T12:55:41.099Z,19.80
2022-09-10T12:58:25.763Z,20.00
2022-09-10T13:00:56.139Z,20.10
2022-09-10T13:03:26.403Z,20.10
2022-09-10T13:06:09.939Z,20.00
2022-09-10T13:09:01.458Z,19.90
2022-09-10T13:11:35.394Z,19.90
2022-09-10T13:14:06.180Z,19.80
2022-09-10T13:16:33.280Z,19.70
2022-09-10T13:19:17.884Z,19.70
2022-09-10T13:21:44.701Z,19.80
2022-09-10T13:24:34.291Z,19.80
2022-09-10T13:27:16.099Z,19.80
2022-09-10T13:30:09.984Z,19.70
2022-09-10T13:32:47.925Z,19.60
2022-09-10T13:35:17.887Z,19.70
2022-09-10T13:38:09.096Z,19.70
2022-09-10T13:40:54.879Z,19.60
2022-09-10T13:43:42.788Z,19.50
2022-09-10T13:46:19.833Z,19.40
2022-09-10T13:48:57.693Z,19.30
2022-09-10T13:51:56.115Z,19.30
2022-09-10T13:54:33.401Z,19.30
2022-09-10T13:57:16.386Z,19.30
2022-09-10T13:59:47.666Z,19.30
2022-09-10T14:02:16.061Z,19.40
2022-09-10T14:04:45.040Z,19.40
2022-09-10T14:07:19.114Z,19.60
2022-09-10T14:09:49.602Z,19.70
2022-09-10T14:12:20.862Z,19.90
2022-09-10T14:14:53.239Z,20.00
2022-09-10T14:17:25.746Z,20.20
2022-09-10T14:19:59.247Z,20.50
2022-09-10T14:22:27.981Z,20.70
2022-09-10T14:25:05.323Z,20.70
2022-09-10T14:27:35.431Z,20.80
2022-09-10T14:30:24.848Z,20.90
2022-09-10T14:32:52.920Z,20.90
2022-09-10T14:35:36.633Z,20.70
2022-09-10T14:38:09.253Z,20.50
2022-09-10T14:40:37.503Z,20.40
2022-09-10T14:43:16.185Z,20.40
2022-09-10T14:45:51.979Z,20.50
2022-09-10T14:49:01.381Z,20.40
2022-09-10T14:51:28.403Z,20.50
2022-09-10T14:53:57.101Z,20.40
2022-09-10T14:56:32.808Z,20.30
2022-09-10T14:59:05.974Z,20.30
2022-09-10T15:01:34.567Z,20.20
2022-09-10T15:04:01.717Z,20.20
2022-09-10T15:06:28.824Z,20.30
2022-09-10T15:09:00.702Z,20.50
2022-09-10T15:11:28.418Z,20.70
2022-09-10T15:13:56.109Z,20.80
2022-09-10T15:16:25.891Z,21.00
2022-09-10T15:19:04.851Z,21.10
2022-09-10T15:21:47.707Z,21.30
2022-09-10T15:24:21.001Z,21.30
2022-09-10T15:26:49.268Z,21.40
2022-09-10T15:29:18.031Z,21.30
2022-09-10T15:31:45.155Z,21.30
2022-09-10T15:34:12.236Z,21.30
2022-09-10T15:36:40.762Z,21.20
2022-09-10T15:39:12.937Z,21.20
2022-09-10T15:41:43.667Z,21.10
2022-09-10T15:44:11.409Z,21.00
2022-09-10T15:46:49.482Z,20.90
2022-09-10T15:49:16.555Z,20.90
2022-09-10T15:51:43.782Z,20.90
2022-09-10T15:54:12.010Z,20.80
2022-09-10T15:56:40.080Z,20.80
2022-09-10T16:01:54.550Z,20.60
2022-09-10T16:04:32.670Z,20.40
2022-09-10T16:09:55.950Z,20.30
2022-09-10T16:13:11.190Z,20.30
2022-09-10T16:15:38.380Z,20.30
2022-09-10T16:18:28.481Z,20.20
2022-09-10T16:21:26.210Z,20.20
2022-09-10T16:24:57.058Z,20.20
2022-09-10T16:27:35.942Z,20.20
2022-09-10T16:30:49.941Z,20.20
2022-09-10T16:33:20.118Z,20.20
2022-09-10T16:36:06.637Z,20.10
2022-09-10T16:39:10.801Z,20.00
2022-09-10T16:41:38.777Z,19.90
2022-09-10T16:47:05.711Z,19.70
2022-09-10T16:49:32.733Z,19.70
2022-09-10T16:52:12.482Z,19.70
2022-09-10T16:55:07.412Z,19.70
2022-09-10T16:58:07.262Z,19.70
2022-09-10T17:00:39.005Z,19.70
2022-09-10T17:03:06.332Z,19.70
2022-09-10T17:05:33.577Z,19.70
2022-09-10T17:08:05.461Z,19.70
2022-09-10T17:10:32.492Z,19.60
2022-09-10T17:13:00.143Z,19.60
2022-09-10T17:15:27.023Z,19.60
2022-09-10T17:17:54.421Z,19.60
2022-09-10T17:20:31.024Z,19.50
2022-09-10T17:22:58.271Z,19.60
2022-09-10T17:25:37.224Z,19.50
2022-09-10T17:28:04.923Z,19.50
2022-09-10T17:30:32.209Z,19.40
2022-09-10T17:33:03.613Z,19.40
2022-09-10T17:35:43.116Z,19.30
2022-09-10T17:38:14.363Z,19.30
2022-09-10T17:40:41.873Z,19.20
2022-09-10T17:43:08.735Z,19.20
2022-09-10T17:45:37.072Z,19.10
2022-09-10T17:48:09.947Z,19.10
2022-09-10T17:50:38.929Z,19.10
2022-09-10T17:53:07.344Z,19.10
2022-09-10T17:55:34.645Z,19.00
2022-09-10T17:58:01.997Z,19.00
2022-09-10T18:00:29.236Z,19.00
2022-09-10T18:02:56.532Z,19.00
2022-09-10T18:05:26.494Z,19.00
2022-09-10T18:07:53.762Z,18.90
2022-09-10T18:10:22.541Z,18.90
2022-09-10T18:12:52.114Z,18.90
2022-09-10T18:15:22.665Z,18.80
2022-09-10T18:17:50.019Z,18.90
2022-09-10T18:20:16.967Z,18.80
2022-09-10T18:22:44.064Z,18.80
2022-09-10T18:25:11.026Z,18.80
2022-09-10T18:27:39.343Z,18.80
2022-09-10T18:30:06.911Z,18.80
2022-09-10T18:32:34.327Z,18.80
2022-09-10T18:35:01.374Z,18.70
2022-09-10T18:37:29.661Z,18.80
2022-09-10T18:39:56.949Z,18.70
2022-09-10T18:42:23.852Z,18.70
2022-09-10T18:44:54.099Z,18.70
2022-09-10T18:47:43.582Z,18.70
2022-09-10T18:50:12.458Z,18.70
2022-09-10T18:52:39.555Z,18.60
2022-09-10T18:55:10.782Z,18.70
2022-09-10T18:57:38.085Z,18.60
2022-09-10T19:00:05.411Z,18.60
2022-09-10T19:02:32.420Z,18.60
2022-09-10T19:05:17.566Z,18.60
2022-09-10T19:07:46.681Z,18.60
2022-09-10T19:10:13.818Z,18.60
2022-09-10T19:12:40.870Z,18.50
2022-09-10T19:15:10.819Z,18.50
2022-09-10T19:17:37.922Z,18.50
2022-09-10T19:20:05.308Z,18.50
2022-09-10T19:22:36.540Z,18.50
2022-09-10T19:25:19.313Z,18.50
2022-09-10T19:27:46.319Z,18.50
2022-09-10T19:30:14.577Z,18.40
2022-09-10T19:32:44.796Z,18.50
2022-09-10T19:35:12.002Z,18.40
2022-09-10T19:37:41.504Z,18.40
2022-09-10T19:42:56.410Z,18.40
2022-09-10T19:45:27.235Z,18.30
2022-09-10T19:47:54.276Z,18.30
2022-09-10T19:50:23.357Z,18.30
2022-09-10T19:52:50.993Z,18.30
2022-09-10T19:55:18.130Z,18.20
2022-09-10T19:57:45.167Z,18.20
2022-09-10T20:00:30.160Z,18.20
2022-09-10T20:03:00.278Z,18.20
2022-09-10T20:05:27.109Z,18.10
2022-09-10T20:07:53.948Z,18.10
2022-09-10T20:10:20.977Z,18.10
2022-09-10T20:12:47.854Z,18.10
2022-09-10T20:15:14.952Z,18.10
2022-09-10T20:17:41.888Z,18.10
2022-09-10T20:20:10.135Z,18.00
2022-09-10T20:22:38.798Z,18.00
2022-09-10T20:25:05.963Z,18.00
2022-09-10T20:27:33.253Z,18.00
2022-09-10T20:30:01.290Z,17.90
2022-09-10T20:32:28.239Z,17.90
2022-09-10T20:34:56.472Z,17.90
2022-09-10T20:37:24.945Z,17.80
2022-09-10T20:39:53.251Z,17.80
2022-09-10T20:42:20.295Z,17.70
2022-09-10T20:44:47.499Z,17.70
2022-09-10T20:47:14.494Z,17.70
2022-09-10T20:49:41.580Z,17.60
2022-09-10T20:52:08.485Z,17.60
2022-09-10T20:54:35.589Z,17.50
2022-09-10T20:57:02.527Z,17.50
2022-09-10T20:59:30.494Z,17.40
2022-09-10T21:01:57.520Z,17.40
2022-09-10T21:04:24.545Z,17.40
2022-09-10T21:06:55.350Z,17.30
2022-09-10T21:09:22.377Z,17.30
2022-09-10T21:11:49.329Z,17.30
2022-09-10T21:14:18.648Z,17.30
2022-09-10T21:16:49.611Z,17.20
2022-09-10T21:19:17.605Z,17.20
2022-09-10T21:21:45.816Z,17.10
2022-09-10T21:24:22.476Z,17.10
2022-09-10T21:26:49.747Z,17.10
2022-09-10T21:29:20.000Z,17.10
2022-09-10T21:31:48.094Z,17.10
2022-09-10T21:34:15.248Z,17.00
2022-09-10T21:36:45.426Z,17.00
2022-09-10T21:39:16.634Z,17.00
2022-09-10T21:41:49.188Z,16.90
2022-09-10T21:44:22.159Z,16.90
2022-09-10T21:46:50.157Z,16.90
2022-09-10T21:49:17.852Z,16.80
2022-09-10T21:51:45.134Z,16.80
2022-09-10T21:54:17.080Z,16.80
2022-09-10T21:56:45.798Z,16.80
2022-09-10T21:59:14.571Z,16.80
2022-09-10T22:01:44.300Z,16.70
2022-09-10T22:04:12.635Z,16.70
2022-09-10T22:06:39.701Z,16.70
2022-09-10T22:09:10.291Z,16.70
2022-09-10T22:11:40.703Z,16.70
2022-09-10T22:14:12.410Z,16.60
2022-09-10T22:16:39.994Z,16.60
2022-09-10T22:19:11.060Z,16.60
2022-09-10T22:21:41.204Z,16.60
2022-09-10T22:24:11.030Z,16.60
2022-09-10T22:26:42.488Z,16.60
2022-09-10T22:29:10.795Z,16.60
2022-09-10T22:31:37.970Z,16.50
2022-09-10T22:34:11.694Z,16.50
2022-09-10T22:36:40.179Z,16.50
2022-09-10T22:39:12.962Z,16.50
2022-09-10T22:41:40.448Z,16.50
2022-09-10T22:44:08.273Z,16.40
2022-09-10T22:46:37.439Z,16.40
2022-09-10T22:49:04.955Z,16.40
2022-09-10T22:51:39.929Z,16.30
2022-09-10T22:54:07.998Z,16.30
2022-09-10T22:56:35.873Z,16.30
2022-09-10T22:59:03.832Z,16.30
2022-09-10T23:01:37.716Z,16.20
2022-09-10T23:04:06.278Z,16.20
2022-09-10T23:06:35.161Z,16.20
2022-09-10T23:09:09.093Z,16.20
2022-09-10T23:11:37.200Z,16.20
2022-09-10T23:14:07.423Z,16.20
2022-09-10T23:16:43.034Z,16.10
2022-09-10T23:19:13.716Z,16.10
2022-09-10T23:21:43.984Z,16.10
2022-09-10T23:24:13.251Z,16.00
2022-09-10T23:26:42.757Z,16.00
2022-09-10T23:29:11.038Z,16.00
2022-09-10T23:31:39.667Z,16.00
2022-09-10T23:34:12.147Z,16.00
2022-09-10T23:36:41.815Z,16.00
2022-09-10T23:39:13.051Z,16.00
2022-09-10T23:41:41.018Z,16.00
2022-09-10T23:44:08.704Z,15.90
2022-09-10T23:46:36.656Z,16.00
2022-09-10T23:49:04.109Z,15.90
2022-09-10T23:51:31.993Z,15.90
2022-09-10T23:53:59.465Z,15.90
2022-09-10T23:56:28.494Z,15.90
2022-09-10T23:58:58.029Z,15.90
